Time;durP1;ratioP1;P1;durP2;ratioP2;P2;SDS_P1;SDS_P2;PMS_P1;PMS_P2;Temp;Humidity;BMP_temperature;BMP_pressure;BME280_temperature;BME280_humidity;BME280_pressure;Samples;Min_cycle;Max_cycle;Signal;HPM_P1;HPM_P2
2023/04/05 00:00:07;;;;;;;;;27.00;26.33;;;;;8.56;47.29;102211.50;1961180;28;3604401;-82
2023/04/05 00:01:19;;;;;;;;;29.00;26.00;;;;;8.53;47.58;102212.38;1936781;28;2858638;-83
2023/04/05 00:02:30;;;;;;;;;30.50;26.50;;;;;8.53;47.62;102217.63;1936994;28;2850625;-82
2023/04/05 00:03:41;;;;;;;;;39.67;27.67;;;;;8.52;47.83;102217.63;1944268;28;3613775;-82
2023/04/05 00:04:57;;;;;;;;;32.80;27.20;;;;;8.51;47.56;102210.63;1955782;28;3604721;-83
2023/04/05 00:06:07;;;;;;;;;33.00;25.00;;;;;8.48;47.99;102216.75;1936765;28;2865878;-83
2023/04/05 00:07:20;;;;;;;;;29.40;25.40;;;;;8.47;47.63;102214.13;1958411;28;3593950;-83
2023/04/05 00:08:31;;;;;;;;;25.33;24.00;;;;;8.46;47.46;102215.88;1934770;28;3584638;-83
2023/04/05 00:09:43;;;;;;;;;34.00;29.33;;;;;8.45;47.37;102211.50;1976687;28;3609614;-82
2023/04/05 00:10:55;;;;;;;;;28.20;24.80;;;;;8.44;47.35;102209.75;1963201;28;3589803;-83
2023/04/05 00:12:07;;;;;;;;;27.60;22.60;;;;;8.42;47.38;102212.34;1979875;28;3585625;-83
2023/04/05 00:13:20;;;;;;;;;27.67;23.33;;;;;8.42;47.63;102208.88;1975111;28;3575257;-83
2023/04/05 00:14:31;;;;;;;;;25.00;23.50;;;;;8.40;47.95;102202.75;1955082;28;2841937;-83
2023/04/05 00:15:43;;;;;;;;;32.60;24.80;;;;;8.39;47.68;102211.50;1978822;28;3605826;-83
2023/04/05 00:16:55;;;;;;;;;31.00;25.00;;;;;8.38;47.69;102212.38;1974950;28;3598172;-83
2023/04/05 00:18:06;;;;;;;;;25.67;24.33;;;;;8.36;48.33;102207.13;1944993;28;3578402;-83
2023/04/05 00:19:18;;;;;;;;;26.67;23.33;;;;;8.36;47.55;102216.72;1982518;28;3585704;-82
2023/04/05 00:20:30;;;;;;;;;25.00;23.00;;;;;8.33;47.70;102205.38;1981582;28;3567930;-83
2023/04/05 00:21:42;;;;;;;;;26.60;25.20;;;;;8.33;47.95;102215.88;1988440;28;3579394;-83
2023/04/05 00:22:54;;;;;;;;;27.67;25.67;;;;;8.33;48.05;102214.97;1976726;28;3584623;-83
2023/04/05 00:24:08;;;;;;;;;26.00;23.20;;;;;8.31;47.85;102215.00;1982064;28;3578338;-83
2023/04/05 00:25:20;;;;;;;;;24.00;21.00;;;;;8.30;48.24;102213.22;1971106;28;2843987;-82
2023/04/05 00:26:32;;;;;;;;;34.67;26.33;;;;;8.29;47.81;102222.00;1943734;28;3600201;-83
2023/04/05 00:27:44;;;;;;;;;26.33;22.33;;;;;8.29;47.88;102215.88;1948908;28;3580477;-82
2023/04/05 00:28:55;;;;;;;;;19.20;17.20;;;;;8.28;48.24;102215.00;1982206;28;1844040;-83
2023/04/05 00:30:07;;;;;;;;;30.00;26.33;;;;;8.27;47.70;102207.97;1954806;28;3583638;-83
2023/04/05 00:31:19;;;;;;;;;27.33;25.00;;;;;8.25;48.20;102212.34;1973861;28;3585677;-83
2023/04/05 00:32:31;;;;;;;;;31.80;24.80;;;;;8.24;48.06;102204.50;1984643;28;3603804;-82
2023/04/05 00:33:43;;;;;;;;;33.60;23.80;;;;;8.23;48.20;102214.09;1951932;28;3602312;-83
2023/04/05 00:34:55;;;;;;;;;26.00;24.20;;;;;8.22;47.83;102215.00;1955612;28;3584592;-83
2023/04/05 00:36:17;;;;;;;;;29.00;25.60;;;;;8.20;47.86;102214.09;1956255;28;3589796;-82
2023/04/05 00:37:28;;;;;;;;;26.50;23.50;;;;;8.18;47.96;102216.72;1962085;28;2858993;-83
2023/04/05 00:38:42;;;;;;;;;27.67;23.33;;;;;8.17;47.74;102212.34;1949502;28;3573462;-83
2023/04/05 00:39:56;;;;;;;;;26.67;24.67;;;;;8.17;48.36;102208.88;1960914;28;3577268;-83
2023/04/05 00:41:08;;;;;;;;;27.00;24.33;;;;;8.16;48.48;102207.13;1961075;28;3585625;-83
2023/04/05 00:42:19;;;;;;;;;25.00;21.40;;;;;8.15;48.36;102208.84;1972352;28;3580421;-83
2023/04/05 00:43:31;;;;;;;;;26.67;23.00;;;;;8.14;47.90;102201.88;1980030;28;3587732;-83
2023/04/05 00:44:43;;;;;;;;;28.00;24.00;;;;;8.13;48.17;102204.47;1970324;28;3586722;-83
2023/04/05 00:45:56;;;;;;;;;24.60;23.00;;;;;8.12;47.77;102205.38;1987763;28;3581492;-83
2023/04/05 00:47:07;;;;;;;;;23.00;21.33;;;;;8.09;47.94;102204.50;1959027;28;3576286;-83
2023/04/05 00:48:19;;;;;;;;;26.20;22.40;;;;;8.09;48.14;102201.88;1981571;28;3584611;-83
2023/04/05 00:49:32;;;;;;;;;27.60;25.80;;;;;8.08;48.54;102194.88;1968490;28;3588741;-82
2023/04/05 00:50:47;;;;;;;;;26.33;23.00;;;;;8.07;48.50;102201.00;1944554;28;3573102;-83
2023/04/05 00:51:59;;;;;;;;;19.67;19.33;;;;;8.06;48.45;102203.59;1960553;28;3571063;-83
2023/04/05 00:53:12;;;;;;;;;30.33;24.33;;;;;8.04;48.28;102200.13;1957297;28;3581529;-83
2023/04/05 00:54:28;;;;;;;;;25.33;19.33;;;;;8.02;48.35;102197.50;1967996;28;3571089;-83
2023/04/05 00:55:40;;;;;;;;;23.67;21.33;;;;;8.02;47.86;102202.75;1961182;28;3573130;-83
2023/04/05 00:56:54;;;;;;;;;21.00;20.50;;;;;8.00;48.23;102196.63;1962306;28;2847164;-83
2023/04/05 00:58:08;;;;;;;;;24.67;21.67;;;;;7.99;47.99;102195.75;1960644;28;3581467;-83
2023/04/05 00:59:21;;;;;;;;;25.00;19.00;;;;;7.98;48.48;102199.25;1989058;28;1831542;-83
2023/04/05 01:00:32;;;;;;;;;29.50;25.00;;;;;7.97;48.40;102199.25;1946631;28;2848182;-83
2023/04/05 01:01:53;;;;;;;;;23.33;18.67;;;;;7.96;48.75;102201.00;1968759;28;1844007;-83
2023/04/05 01:03:06;;;;;;;;;24.33;20.67;;;;;7.94;48.10;102194.88;1938041;28;3581540;-83
2023/04/05 01:04:20;;;;;;;;;27.50;22.00;;;;;7.93;48.71;102198.34;1962458;28;2855482;-83
2023/04/05 01:05:48;;;;;;;;;23.00;20.50;;;;;7.93;48.68;102194.84;1946293;28;2841917;-83
2023/04/05 01:07:08;;;;;;;;;23.00;21.00;;;;;7.91;48.64;102196.59;1968367;28;3589834;-83
2023/04/05 01:08:32;;;;;;;;;19.00;15.00;;;;;7.89;48.72;102191.38;1997611;28;1840443;-83
2023/04/05 01:09:57;;;;;;;;;23.33;19.67;;;;;7.90;48.64;102197.50;1946166;28;3585664;-83
2023/04/05 01:11:10;;;;;;;;;22.67;20.67;;;;;7.88;48.73;102195.72;1958473;28;3575270;-83
2023/04/05 01:12:26;;;;;;;;;22.00;19.33;;;;;7.87;48.65;102193.13;1961202;28;3580437;-83
2023/04/05 01:13:37;;;;;;;;;27.33;22.33;;;;;7.85;48.30;102193.09;1967487;28;3577350;-83
2023/04/05 01:14:51;;;;;;;;;20.67;19.33;;;;;7.86;48.67;102199.22;1982493;28;3568999;-83
2023/04/05 01:16:03;;;;;;;;;23.67;21.67;;;;;7.83;48.91;102189.59;1966366;28;3582509;-83
2023/04/05 01:17:27;;;;;;;;;21.60;21.00;;;;;7.82;48.96;102190.50;1985985;28;2829413;-82
2023/04/05 01:18:39;;;;;;;;;27.00;20.67;;;;;7.82;49.19;102195.72;1937735;28;3571109;-82
2023/04/05 01:19:57;;;;;;;;;21.33;20.00;;;;;7.80;49.03;102192.25;1960102;28;3578418;-82
2023/04/05 01:21:37;;;;;;;;;23.33;19.33;;;;;7.80;48.83;102186.13;1967813;28;3577346;-83
2023/04/05 01:23:00;;;;;;;;;27.33;21.00;;;;;7.77;48.99;102187.00;1965946;28;3585676;-83
2023/04/05 01:24:45;;;;;;;;;22.33;19.33;;;;;7.77;49.23;102194.84;1961009;28;3587713;-82
2023/04/05 01:26:14;;;;;;;;;22.83;19.67;;;;;7.74;49.19;102185.25;1987587;28;1842493;-83
2023/04/05 01:27:35;;;;;;;;;23.33;21.00;;;;;7.73;48.78;102180.00;1940093;28;3592977;-83
2023/04/05 01:29:17;;;;;;;;;25.50;22.00;;;;;7.72;48.92;102180.88;1969676;28;2846102;-83
2023/04/05 01:30:38;;;;;;;;;18.33;18.00;;;;;7.71;48.70;102177.38;1997946;28;1834731;-82
2023/04/05 01:32:07;;;;;;;;;31.00;24.33;;;;;7.70;49.30;102175.66;1946616;28;3596082;-83
2023/04/05 01:33:47;;;;;;;;;29.00;22.00;;;;;7.69;49.42;102168.66;1945701;28;3586755;-82
2023/04/05 01:35:11;;;;;;;;;21.00;19.00;;;;;7.68;49.49;102171.28;1953762;28;3574574;-83
2023/04/05 01:36:26;;;;;;;;;21.33;21.00;;;;;7.67;49.36;102169.50;1963696;28;3574202;-83
2023/04/05 01:37:39;;;;;;;;;26.33;22.67;;;;;7.66;49.38;102168.63;1969532;28;3578365;-82
2023/04/05 01:38:52;;;;;;;;;29.00;24.00;;;;;7.65;49.21;102169.53;1976061;28;2845056;-83
2023/04/05 01:40:05;;;;;;;;;22.33;19.00;;;;;7.64;49.37;102165.16;1975260;28;3566916;-83
2023/04/05 01:41:16;;;;;;;;;21.33;19.00;;;;;7.63;49.67;102172.13;1968991;28;3563120;-82
2023/04/05 01:42:28;;;;;;;;;22.33;22.33;;;;;7.62;49.41;102167.75;1974789;28;3580847;-82
2023/04/05 01:43:41;;;;;;;;;26.50;21.83;;;;;7.61;49.28;102170.34;1999151;28;2841893;-82
2023/04/05 01:44:55;;;;;;;;;23.67;22.67;;;;;7.60;49.66;102172.13;1965733;28;3573145;-82
2023/04/05 01:46:06;;;;;;;;;25.00;21.33;;;;;7.60;49.67;102168.63;1964078;28;3580460;-82
2023/04/05 01:47:19;;;;;;;;;27.80;21.40;;;;;7.58;49.45;102165.13;1983222;28;3587708;-82
2023/04/05 01:48:32;;;;;;;;;15.33;12.17;;;;;7.57;49.84;102166.88;1998731;28;1835864;-82
2023/04/05 01:49:44;;;;;;;;;21.33;19.00;;;;;7.57;49.54;102163.38;1937848;28;3575224;-82
2023/04/05 01:50:56;;;;;;;;;23.67;22.67;;;;;7.55;49.64;102163.38;1978522;28;3585664;-82
2023/04/05 01:52:07;;;;;;;;;18.00;17.00;;;;;7.54;50.43;102167.75;1979701;28;2825282;-83
2023/04/05 01:53:19;;;;;;;;;21.67;20.33;;;;;7.54;49.88;102169.47;1955780;28;3578325;-82
2023/04/05 01:54:32;;;;;;;;;27.83;23.00;;;;;7.53;50.17;102172.97;1994907;28;2850210;-82
2023/04/05 01:55:43;;;;;;;;;23.00;20.00;;;;;7.52;50.17;102161.63;1963507;28;2833584;-82
2023/04/05 01:56:55;;;;;;;;;21.33;20.33;;;;;7.51;49.87;102166.84;1962904;28;2837823;-82
2023/04/05 01:58:07;;;;;;;;;25.00;20.00;;;;;7.50;49.94;102167.72;1967383;28;3586697;-82
2023/04/05 01:59:19;;;;;;;;;20.33;19.33;;;;;7.48;49.91;102169.47;1968600;28;3561081;-82
2023/04/05 02:00:31;;;;;;;;;26.00;19.67;;;;;7.47;49.99;102162.47;1990085;28;3581494;-82
2023/04/05 02:01:43;;;;;;;;;21.33;18.67;;;;;7.46;49.82;102160.75;1973825;28;3574574;-82
2023/04/05 02:02:54;;;;;;;;;22.67;20.00;;;;;7.43;50.04;102167.69;1978602;28;3587724;-82
2023/04/05 02:04:06;;;;;;;;;21.33;18.33;;;;;7.42;49.75;102162.47;1984788;28;3568999;-82
2023/04/05 02:05:18;;;;;;;;;13.60;11.40;;;;;7.40;50.09;102159.84;1991428;28;1833663;-82
2023/04/05 02:06:30;;;;;;;;;18.00;16.00;;;;;7.40;50.27;102164.22;1960037;28;2812795;-82
2023/04/05 02:07:42;;;;;;;;;25.33;17.67;;;;;7.39;50.22;102165.94;1932880;28;3586711;-82
2023/04/05 02:08:53;;;;;;;;;20.50;18.00;;;;;7.37;50.35;102158.97;1976117;28;2829454;-82
2023/04/05 02:10:04;;;;;;;;;20.00;17.00;;;;;7.35;50.41;102153.72;1955039;28;2823136;-82
2023/04/05 02:11:16;;;;;;;;;24.67;22.33;;;;;7.35;50.40;102156.34;1935569;28;3583582;-82
2023/04/05 02:12:28;;;;;;;;;21.67;20.67;;;;;7.32;50.28;102159.81;1968181;28;3577342;-82
2023/04/05 02:13:39;;;;;;;;;24.00;20.67;;;;;7.31;50.12;102151.94;1976896;28;3575256;-82
2023/04/05 02:14:51;;;;;;;;;18.67;17.33;;;;;7.30;50.29;102150.22;1977970;28;3573209;-82
2023/04/05 02:16:02;;;;;;;;;24.50;18.00;;;;;7.29;50.58;102151.06;1978147;29;1841984;-82
2023/04/05 02:17:14;;;;;;;;;28.00;22.00;;;;;7.28;50.41;102149.34;1933032;28;2857566;-82
2023/04/05 02:18:30;;;;;;;;;27.50;21.50;;;;;7.26;50.65;102143.25;1940126;28;2856535;-82
2023/04/05 02:19:45;;;;;;;;;26.33;23.00;;;;;7.25;50.52;102139.75;1937121;28;3588774;-82
2023/04/05 02:21:05;;;;;;;;;29.67;25.67;;;;;7.24;50.75;102145.84;1961908;28;3589871;-82
2023/04/05 02:22:16;;;;;;;;;24.00;19.67;;;;;7.23;50.80;102149.34;1961228;28;3573161;-82
2023/04/05 02:23:29;;;;;;;;;19.67;17.00;;;;;7.22;50.68;102142.34;1977998;28;3558587;-82
2023/04/05 02:24:41;;;;;;;;;22.33;20.00;;;;;7.22;50.47;102144.06;1961769;28;3579391;-82
2023/04/05 02:25:52;;;;;;;;;22.00;19.67;;;;;7.19;50.68;102134.47;1977209;28;3571058;-82
2023/04/05 02:27:06;;;;;;;;;21.00;21.00;;;;;7.18;50.84;102136.25;1969807;28;3582528;-82
2023/04/05 02:28:17;;;;;;;;;25.33;22.00;;;;;7.18;50.74;102127.50;1954650;28;3580452;-82
2023/04/05 02:29:32;;;;;;;;;21.33;20.00;;;;;7.16;50.94;102129.25;1970768;28;3583577;-82
2023/04/05 02:30:43;;;;;;;;;27.67;23.00;;;;;7.16;50.95;102137.09;1961748;28;3586687;-82
2023/04/05 02:31:55;;;;;;;;;21.33;19.00;;;;;7.14;50.77;102126.63;1976490;28;3587736;-82
2023/04/05 02:33:08;;;;;;;;;20.00;18.00;;;;;7.13;50.76;102129.25;1976954;28;2832613;-82
2023/04/05 02:34:21;;;;;;;;;22.00;18.67;;;;;7.12;50.71;102124.84;1939551;28;2839969;-82
2023/04/05 02:35:32;;;;;;;;;24.50;20.00;;;;;7.11;51.02;102124.00;1963484;28;2841932;-82
2023/04/05 02:36:44;;;;;;;;;18.33;18.00;;;;;7.09;51.21;102123.09;1978998;28;3567945;-82
2023/04/05 02:37:55;;;;;;;;;19.00;17.00;;;;;7.09;51.24;102123.09;1970989;28;3557549;-82
2023/04/05 02:39:07;;;;;;;;;19.00;18.67;;;;;7.06;51.14;102120.50;1967621;29;3572120;-82
2023/04/05 02:40:20;;;;;;;;;25.33;20.00;;;;;7.05;50.95;102122.22;1969084;28;3577403;-82
2023/04/05 02:41:31;;;;;;;;;14.00;12.33;;;;;7.05;51.31;102117.00;1959906;28;3517020;-82
2023/04/05 02:42:43;;;;;;;;;22.80;20.40;;;;;7.04;51.19;102114.38;1980440;28;3562729;-82
2023/04/05 02:43:54;;;;;;;;;18.67;16.67;;;;;7.03;51.62;102120.47;1977838;28;3560995;-82
2023/04/05 02:45:07;;;;;;;;;17.50;15.00;;;;;7.02;51.69;102118.72;1976208;28;2815904;-82
2023/04/05 02:46:20;;;;;;;;;20.00;16.00;;;;;7.01;51.43;102114.38;1965455;28;1844102;-82
2023/04/05 02:47:32;;;;;;;;;19.33;19.00;;;;;6.98;51.37;102113.50;1960948;28;3564820;-82
2023/04/05 02:48:45;;;;;;;;;19.33;17.50;;;;;6.97;51.24;102116.09;1983232;29;2832538;-82
2023/04/05 02:49:56;;;;;;;;;23.00;17.67;;;;;6.97;51.56;102118.69;1932545;29;3573145;-82
2023/04/05 02:51:08;;;;;;;;;24.67;19.00;;;;;6.96;51.23;102116.97;1966076;28;3580541;-82
2023/04/05 02:52:21;;;;;;;;;22.80;18.00;;;;;6.94;51.27;102119.56;1980470;28;3585617;-82
2023/04/05 02:53:32;;;;;;;;;20.67;18.00;;;;;6.94;51.43;102113.47;1959550;28;2829509;-82
2023/04/05 02:54:45;;;;;;;;;21.33;19.33;;;;;6.92;51.75;102116.06;1960369;28;2825330;-82
2023/04/05 02:55:59;;;;;;;;;30.00;20.57;;;;;6.91;51.52;102116.94;1988734;28;1839955;-82
2023/04/05 02:57:10;;;;;;;;;22.00;21.00;;;;;6.90;51.37;102120.41;1961302;28;3581502;-82
2023/04/05 02:58:23;;;;;;;;;20.40;17.80;;;;;6.90;51.40;102120.41;1980509;28;3557506;-82
2023/04/05 02:59:35;;;;;;;;;22.67;19.67;;;;;6.90;51.80;102120.41;1959767;28;3562725;-82
2023/04/05 03:00:50;;;;;;;;;21.17;17.00;;;;;6.88;51.29;102111.69;1990564;28;1833632;-82
2023/04/05 03:02:02;;;;;;;;;22.00;18.00;;;;;6.88;51.52;102118.66;1937003;28;2835679;-82
2023/04/05 03:03:19;;;;;;;;;21.50;19.83;;;;;6.87;51.45;102112.56;1989414;28;1840623;-82
2023/04/05 03:04:33;;;;;;;;;20.50;19.00;;;;;6.86;51.59;102116.06;1940439;28;2842480;-82
2023/04/05 03:05:47;;;;;;;;;23.00;19.00;;;;;6.85;51.76;102116.91;1950317;28;2839998;-82
2023/04/05 03:07:03;;;;;;;;;21.00;17.67;;;;;6.84;51.71;102115.19;1967595;28;3560650;-82
2023/04/05 03:08:18;;;;;;;;;22.33;20.00;;;;;6.84;51.64;102123.88;1959863;28;2828444;-82
2023/04/05 03:09:32;;;;;;;;;23.33;18.00;;;;;6.82;51.58;102125.59;1960720;28;3585001;-82
2023/04/05 03:10:46;;;;;;;;;17.17;15.67;;;;;6.81;51.70;102121.25;1992781;28;1822189;-82
2023/04/05 03:11:56;;;;;;;;;15.00;14.00;;;;;6.80;51.71;102113.41;1946565;28;2779491;-82
2023/04/05 03:13:07;;;;;;;;;24.00;17.40;;;;;6.81;51.76;102120.38;1974277;28;2832522;-82
2023/04/05 03:14:19;;;;;;;;;26.00;18.00;;;;;6.79;52.03;102116.88;1986924;28;3580910;-82
2023/04/05 03:15:32;;;;;;;;;20.00;18.00;;;;;6.78;51.75;102123.84;1969999;28;3571094;-82
2023/04/05 03:16:43;;;;;;;;;19.33;18.33;;;;;6.78;51.91;102121.22;1961997;28;3564804;-82
2023/04/05 03:17:56;;;;;;;;;19.50;18.00;;;;;6.77;51.83;102118.59;2003064;28;2830439;-82
2023/04/05 03:19:08;;;;;;;;;23.00;20.33;;;;;6.74;51.78;102120.31;1962834;28;2826308;-82
2023/04/05 03:20:19;;;;;;;;;22.50;18.00;;;;;6.73;52.07;102118.59;1968339;28;2823190;-82
2023/04/05 03:21:32;;;;;;;;;23.67;20.00;;;;;6.72;51.56;102124.69;1961323;28;3567942;-82
2023/04/05 03:22:43;;;;;;;;;20.00;17.00;;;;;6.71;51.68;102122.06;1963765;28;2831468;-82
2023/04/05 03:23:56;;;;;;;;;24.60;20.60;;;;;6.70;52.09;102129.03;1954932;28;2834586;-82
2023/04/05 03:25:08;;;;;;;;;26.67;22.00;;;;;6.68;51.84;102125.53;1952827;28;2834719;-82
2023/04/05 03:26:19;;;;;;;;;28.33;18.33;;;;;6.67;52.10;102123.78;1971821;28;3606516;-82
2023/04/05 03:27:31;;;;;;;;;23.67;18.00;;;;;6.67;52.13;102129.00;1989931;28;3568324;-82
2023/04/05 03:28:43;;;;;;;;;23.00;22.25;;;;;6.67;51.88;102130.75;1993241;28;1844044;-82
2023/04/05 03:29:54;;;;;;;;;21.00;18.33;;;;;6.65;52.51;102130.72;1945933;28;3563107;-82
2023/04/05 03:31:06;;;;;;;;;22.00;20.00;;;;;6.64;52.29;102129.84;1973799;28;2837842;-82
2023/04/05 03:32:17;;;;;;;;;23.67;22.00;;;;;6.63;52.39;102135.09;1967210;28;3582573;-82
2023/04/05 03:33:29;;;;;;;;;23.00;21.33;;;;;6.63;52.11;102135.09;1982865;28;3584642;-82
2023/04/05 03:34:41;;;;;;;;;21.33;19.00;;;;;6.61;52.43;102129.84;1979015;28;3571082;-82
2023/04/05 03:35:53;;;;;;;;;19.40;18.40;;;;;6.60;52.10;102125.47;1978221;28;3568948;-82
2023/04/05 03:37:05;;;;;;;;;21.67;21.00;;;;;6.60;52.28;102128.09;1977445;28;3573202;-82
2023/04/05 03:38:17;;;;;;;;;27.33;21.00;;;;;6.59;52.31;102128.09;1984985;28;3577815;-82
2023/04/05 03:39:28;;;;;;;;;25.00;21.00;;;;;6.58;52.58;102124.59;1984244;28;2847167;-82
2023/04/05 03:40:40;;;;;;;;;25.00;24.33;;;;;6.57;52.37;102129.84;1950836;28;3577285;-82
2023/04/05 03:41:51;;;;;;;;;26.33;22.33;;;;;6.56;52.62;102126.34;1983530;28;3578365;-82
2023/04/05 03:43:03;;;;;;;;;24.67;22.67;;;;;6.54;52.70;102128.06;1984335;28;3578398;-82
2023/04/05 03:44:15;;;;;;;;;22.20;20.60;;;;;6.54;52.57;102120.22;1983772;28;3577280;-82
2023/04/05 03:45:28;;;;;;;;;25.00;23.00;;;;;6.52;52.71;102128.03;1985154;28;3578354;-82
2023/04/05 03:46:41;;;;;;;;;23.00;22.00;;;;;6.51;52.79;102123.69;1966742;28;3576700;-82
2023/04/05 03:47:53;;;;;;;;;24.00;22.00;;;;;6.50;52.60;102126.28;1968522;28;2838867;-82
2023/04/05 03:49:06;;;;;;;;;20.67;20.67;;;;;6.48;52.56;102123.66;1968574;28;3579398;-82
2023/04/05 03:50:17;;;;;;;;;30.00;23.00;;;;;6.48;53.16;102125.41;1969145;28;3599178;-82
2023/04/05 03:51:28;;;;;;;;;21.00;16.50;;;;;6.47;52.88;102123.69;1981153;28;2831564;-82
2023/04/05 03:52:40;;;;;;;;;22.33;21.00;;;;;6.45;52.93;102121.03;1954082;28;3565871;-82
2023/04/05 03:53:52;;;;;;;;;28.20;22.20;;;;;6.44;52.93;102127.13;1981988;28;3592941;-82
2023/04/05 03:55:05;;;;;;;;;28.60;22.60;;;;;6.44;52.95;102121.91;1978634;28;3592984;-82
2023/04/05 03:56:16;;;;;;;;;26.00;23.33;;;;;6.42;52.69;102123.63;1943460;28;3574179;-82
2023/04/05 03:57:30;;;;;;;;;21.00;16.67;;;;;6.42;52.67;102128.84;1996389;28;1831649;-82
2023/04/05 03:58:41;;;;;;;;;29.67;21.33;;;;;6.41;52.89;102128.00;1971966;28;3607548;-82
2023/04/05 03:59:53;;;;;;;;;25.67;21.67;;;;;6.38;52.78;102122.72;1983130;28;3591898;-83
2023/04/05 04:01:05;;;;;;;;;23.00;20.00;;;;;6.39;53.28;102126.22;1983083;28;2836784;-82
2023/04/05 04:02:17;;;;;;;;;23.00;20.33;;;;;6.38;52.80;102120.13;1969049;28;3578342;-82
2023/04/05 04:03:29;;;;;;;;;27.33;25.33;;;;;6.37;53.14;102120.97;1978123;28;3589883;-82
2023/04/05 04:04:42;;;;;;;;;20.33;17.83;;;;;6.37;53.31;102114.91;1988906;28;1830502;-82
2023/04/05 04:05:55;;;;;;;;;24.00;21.00;;;;;6.35;53.32;102117.47;1944027;28;3585646;-83
2023/04/05 04:07:05;;;;;;;;;25.50;23.00;;;;;6.35;53.07;102124.44;1968682;28;2845053;-82
2023/04/05 04:08:17;;;;;;;;;21.00;19.67;;;;;6.35;53.39;102124.44;1953267;28;3575240;-83
2023/04/05 04:09:29;;;;;;;;;30.00;22.00;;;;;6.33;53.15;102118.34;1975090;28;3600258;-82
2023/04/05 04:10:41;;;;;;;;;29.33;20.00;;;;;6.32;53.31;102122.72;1969066;28;3604427;-82
2023/04/05 04:11:53;;;;;;;;;27.33;21.00;;;;;6.30;53.35;102117.44;1977629;28;3587721;-82
2023/04/05 04:13:04;;;;;;;;;23.50;17.00;;;;;6.30;52.79;102117.44;1979279;28;2826793;-82
2023/04/05 04:14:16;;;;;;;;;25.00;22.33;;;;;6.29;53.26;102120.94;1955624;28;3585624;-82
2023/04/05 04:15:28;;;;;;;;;29.67;27.00;;;;;6.28;53.11;102116.56;1978341;28;3591883;-82
2023/04/05 04:16:39;;;;;;;;;24.00;19.33;;;;;6.28;53.22;102110.47;1985128;28;3579414;-83
2023/04/05 04:17:52;;;;;;;;;22.33;21.33;;;;;6.28;53.36;102116.56;1993634;28;2833572;-83
2023/04/05 04:19:04;;;;;;;;;24.60;22.80;;;;;6.27;53.57;102113.97;1960127;28;3568940;-82
2023/04/05 04:20:16;;;;;;;;;23.67;21.00;;;;;6.26;53.33;102112.19;1975999;28;3587780;-83
2023/04/05 04:21:31;;;;;;;;;25.00;19.33;;;;;6.25;53.59;102115.66;1975266;28;3587744;-82
2023/04/05 04:22:42;;;;;;;;;23.33;18.67;;;;;6.25;53.21;102113.94;1960014;28;3579762;-83
2023/04/05 04:23:54;;;;;;;;;21.33;19.67;;;;;6.24;53.41;102112.19;1975369;28;3571066;-83
2023/04/05 04:25:10;;;;;;;;;20.33;19.00;;;;;6.23;53.27;102118.28;1977512;28;3575285;-82
2023/04/05 04:26:27;;;;;;;;;21.67;21.67;;;;;6.23;53.60;102117.38;1961153;28;3575248;-82
2023/04/05 04:27:41;;;;;;;;;32.00;24.00;;;;;6.22;53.66;102113.03;1964299;28;2856542;-82
2023/04/05 04:28:53;;;;;;;;;26.33;22.00;;;;;6.21;53.23;102108.66;1943975;28;3586707;-83
2023/04/05 04:30:10;;;;;;;;;25.33;22.00;;;;;6.20;53.22;102110.41;1965020;28;3582886;-82
2023/04/05 04:31:21;;;;;;;;;16.50;16.50;;;;;6.21;53.71;102113.91;1967752;28;2824230;-82
2023/04/05 04:32:54;;;;;;;;;24.00;22.67;;;;;6.19;53.33;102106.94;1943928;28;3579504;-83
2023/04/05 04:34:05;;;;;;;;;23.00;19.33;;;;;6.18;53.49;102109.53;1959524;28;3575228;-82
2023/04/05 04:35:19;;;;;;;;;29.00;23.67;;;;;6.17;53.37;102107.78;1970774;28;3589815;-83
2023/04/05 04:36:33;;;;;;;;;23.33;22.67;;;;;6.16;53.51;102106.03;1960392;28;3569003;-82
2023/04/05 04:37:51;;;;;;;;;22.00;20.50;;;;;6.16;53.61;102106.03;1960925;28;2826281;-82
2023/04/05 04:39:06;;;;;;;;;25.33;21.33;;;;;6.15;53.23;102110.38;1945499;28;3581537;-82
2023/04/05 04:40:17;;;;;;;;;28.00;23.00;;;;;6.13;53.47;102101.66;1966824;28;3583550;-82
2023/04/05 04:41:32;;;;;;;;;22.67;22.00;;;;;6.13;53.52;102106.00;1972153;28;3580453;-82
2023/04/05 04:42:47;;;;;;;;;20.67;16.67;;;;;6.12;53.55;102101.66;1959760;28;3556475;-82
2023/04/05 04:44:01;;;;;;;;;25.33;22.33;;;;;6.12;53.37;102106.88;1961048;28;3577333;-82
2023/04/05 04:45:16;;;;;;;;;25.33;22.33;;;;;6.11;53.47;102103.38;1960998;28;3582547;-82
2023/04/05 04:46:29;;;;;;;;;24.00;22.00;;;;;6.11;53.48;102107.72;1961860;28;2846457;-83
2023/04/05 04:47:41;;;;;;;;;27.33;24.33;;;;;6.10;53.66;102108.59;1960877;28;3580456;-83
2023/04/05 04:48:53;;;;;;;;;26.00;22.67;;;;;6.08;53.66;102112.06;1960173;28;3591899;-83
2023/04/05 04:50:06;;;;;;;;;32.67;27.00;;;;;6.09;53.38;102110.34;1976636;28;3604460;-83
2023/04/05 04:51:17;;;;;;;;;31.00;28.67;;;;;6.07;53.88;102107.69;1937282;28;3596049;-82
2023/04/05 04:52:29;;;;;;;;;31.00;24.67;;;;;6.07;53.61;102107.69;1976757;28;3594053;-82
2023/04/05 04:53:41;;;;;;;;;33.00;27.33;;;;;6.07;53.99;102112.91;1966884;28;3606903;-83
2023/04/05 04:54:53;;;;;;;;;35.00;27.00;;;;;6.06;53.74;102116.38;1949926;28;3597138;-83
2023/04/05 04:56:06;;;;;;;;;37.60;26.20;;;;;6.08;53.97;102111.19;1981374;28;3640813;-81
2023/04/05 04:57:17;;;;;;;;;29.50;24.50;;;;;6.07;54.04;102102.47;1942812;28;2847113;-82
2023/04/05 04:58:29;;;;;;;;;30.00;26.00;;;;;6.07;54.38;102109.47;1959624;28;3585668;-81
2023/04/05 04:59:40;;;;;;;;;32.60;30.00;;;;;6.08;54.24;102109.47;1976180;28;3600323;-82
2023/04/05 05:00:52;;;;;;;;;28.33;25.33;;;;;6.07;53.91;102104.22;1951707;28;3589855;-82
2023/04/05 05:02:04;;;;;;;;;30.00;28.67;;;;;6.08;54.21;102108.56;1978598;28;3598240;-82
2023/04/05 05:03:16;;;;;;;;;33.60;26.40;;;;;6.08;54.06;102104.22;1959023;28;3601226;-82
2023/04/05 05:04:28;;;;;;;;;28.00;27.00;;;;;6.08;54.07;102104.22;1950560;28;3589858;-82
2023/04/05 05:05:45;;;;;;;;;32.60;30.20;;;;;6.09;54.20;102099.91;1986601;28;3589795;-81
2023/04/05 05:06:56;;;;;;;;;35.00;30.50;;;;;6.08;54.14;102104.22;1967239;28;2869059;-82
2023/04/05 05:08:08;;;;;;;;;33.60;26.40;;;;;6.10;54.45;102100.78;1955303;28;3601286;-82
2023/04/05 05:09:21;;;;;;;;;32.43;27.29;;;;;6.11;54.40;102107.72;1978290;28;3591918;-83
2023/04/05 05:10:33;;;;;;;;;25.67;24.67;;;;;6.11;54.71;102110.34;1958243;28;3587820;-82
2023/04/05 05:11:44;;;;;;;;;36.40;29.60;;;;;6.08;54.39;102096.41;1979628;28;3610604;-84
2023/04/05 05:12:57;;;;;;;;;34.71;28.57;;;;;6.08;53.99;102096.41;1960371;28;3601321;-85
2023/04/05 05:14:09;;;;;;;;;36.00;28.20;;;;;6.08;54.30;102096.41;1970537;28;3603341;-85
2023/04/05 05:15:21;;;;;;;;;35.00;31.00;;;;;6.08;54.21;102099.00;1963523;28;3614176;-82
2023/04/05 05:16:33;;;;;;;;;35.60;31.40;;;;;6.10;54.33;102100.78;1962433;28;3608564;-82
2023/04/05 05:17:46;;;;;;;;;29.00;25.40;;;;;6.08;54.57;102091.19;1963689;28;3590804;-82
2023/04/05 05:18:57;;;;;;;;;33.00;31.00;;;;;6.08;54.67;102091.19;1977113;28;3599143;-82
2023/04/05 05:20:10;;;;;;;;;41.33;32.00;;;;;6.09;54.51;102092.06;1960611;28;3616905;-82
2023/04/05 05:21:22;;;;;;;;;32.33;25.33;;;;;6.10;54.47;102095.56;1944008;28;3601273;-82
2023/04/05 05:22:34;;;;;;;;;32.00;26.67;;;;;6.08;54.23;102099.00;1983609;28;3593310;-82
2023/04/05 05:23:46;;;;;;;;;36.33;30.67;;;;;6.07;54.33;102092.03;1957617;28;3609722;-82
2023/04/05 05:24:58;;;;;;;;;37.00;33.40;;;;;6.07;54.10;102094.63;1955313;28;3581446;-82
2023/04/05 05:26:11;;;;;;;;;29.20;28.00;;;;;6.08;54.73;102092.91;1951939;28;3584572;-82
2023/04/05 05:27:22;;;;;;;;;37.00;30.50;;;;;6.07;54.72;102096.41;1969920;28;2862764;-82
2023/04/05 05:28:35;;;;;;;;;32.60;30.80;;;;;6.07;54.53;102097.25;1971736;28;3597075;-82
2023/04/05 05:29:46;;;;;;;;;28.50;25.50;;;;;6.07;54.67;102097.25;1946713;28;2833572;-82